Time;durP1;ratioP1;P1;durP2;ratioP2;P2;SDS_P1;SDS_P2;PMS_P1;PMS_P2;Temp;Humidity;BMP_temperature;BMP_pressure;BME280_temperature;BME280_humidity;BME280_pressure;Samples;Min_cycle;Max_cycle;Signal;HPM_P1;HPM_P2
2021/12/27 00:01:51;;;;;;;3.47;2.40;;;-0.70;99.90;;;;;;5090200;28;20039;-85
2021/12/27 00:04:16;;;;;;;6.03;3.60;;;-0.70;99.90;;;;;;5075679;28;20484;-85
2021/12/27 00:06:42;;;;;;;5.25;2.63;;;-0.70;99.90;;;;;;5067528;28;20122;-84
2021/12/27 00:09:07;;;;;;;4.15;2.65;;;-0.70;99.90;;;;;;5069028;28;20448;-85
2021/12/27 00:11:33;;;;;;;3.70;2.65;;;-0.70;99.90;;;;;;5067667;28;20043;-84
2021/12/27 00:14:01;;;;;;;5.10;2.90;;;-0.60;99.90;;;;;;5069620;28;20393;-84
2021/12/27 00:16:26;;;;;;;3.05;2.15;;;-0.60;99.90;;;;;;5063776;28;20078;-84
2021/12/27 00:18:52;;;;;;;3.75;2.03;;;-0.60;99.90;;;;;;5068238;28;20607;-85
2021/12/27 00:21:18;;;;;;;3.13;1.73;;;-0.80;99.90;;;;;;5083153;28;20135;-84
2021/12/27 00:23:43;;;;;;;7.72;4.15;;;-0.60;99.90;;;;;;5065015;28;20409;-84
2021/12/27 00:26:09;;;;;;;4.07;1.75;;;-0.60;99.90;;;;;;5079562;27;20405;-84
2021/12/27 00:28:35;;;;;;;12.13;5.88;;;-0.50;99.90;;;;;;5064046;28;20035;-84
2021/12/27 00:31:02;;;;;;;6.70;3.75;;;-0.50;99.90;;;;;;5103944;27;20059;-84
2021/12/27 00:33:28;;;;;;;9.90;4.82;;;-0.50;99.90;;;;;;5083400;28;20042;-84
2021/12/27 00:35:54;;;;;;;8.98;4.55;;;-0.50;99.90;;;;;;5082781;28;20039;-84
2021/12/27 00:38:20;;;;;;;10.05;4.75;;;-0.50;99.90;;;;;;5068907;28;20055;-84
2021/12/27 00:40:46;;;;;;;11.30;5.53;;;-0.50;99.90;;;;;;5105247;27;20068;-84
2021/12/27 00:43:12;;;;;;;5.63;3.05;;;-0.50;99.90;;;;;;5082226;28;20038;-84
2021/12/27 00:45:37;;;;;;;6.57;4.18;;;0.40;99.90;;;;;;5071643;27;20441;-84
2021/12/27 00:48:04;;;;;;;7.32;4.03;;;-0.40;99.90;;;;;;5094489;28;20047;-85
2021/12/27 00:50:30;;;;;;;8.18;3.22;;;-0.40;99.90;;;;;;5076936;27;20027;-84
2021/12/27 00:52:55;;;;;;;7.97;4.15;;;-0.40;99.90;;;;;;5084349;27;20511;-84
2021/12/27 00:55:22;;;;;;;6.72;3.83;;;-0.40;99.90;;;;;;5069612;27;20062;-84
2021/12/27 00:57:48;;;;;;;9.77;4.55;;;-0.40;99.90;;;;;;5087749;28;20036;-84
2021/12/27 01:00:18;;;;;;;8.55;4.22;;;-0.40;99.90;;;;;;5084098;28;20037;-84
2021/12/27 01:02:45;;;;;;;5.95;3.72;;;-0.40;99.90;;;;;;5102154;28;20035;-84
2021/12/27 01:05:11;;;;;;;10.05;3.80;;;-0.40;99.90;;;;;;5068298;28;20039;-84
2021/12/27 01:07:37;;;;;;;4.75;2.67;;;-0.40;99.90;;;;;;5073572;28;20057;-84
2021/12/27 01:12:49;;;;;;;11.25;4.55;;;-0.40;99.90;;;;;;5082549;28;20040;-84
2021/12/27 01:17:47;;;;;;;12.25;2.75;;;-0.30;99.90;;;;;;5086249;28;20111;-85
2021/12/27 01:20:18;;;;;;;3.90;2.92;;;-0.30;99.90;;;;;;5066189;28;20040;-84
2021/12/27 01:22:44;;;;;;;6.55;4.15;;;-0.30;99.90;;;;;;5085317;28;20119;-85
2021/12/27 01:25:12;;;;;;;5.15;2.58;;;-0.30;99.90;;;;;;5072221;27;20117;-85
2021/12/27 01:27:38;;;;;;;8.85;4.20;;;-0.30;99.90;;;;;;5100710;28;20067;-85
2021/12/27 01:30:07;;;;;;;5.45;2.92;;;-0.30;99.90;;;;;;5086129;28;20097;-85
2021/12/27 01:32:38;;;;;;;18.08;3.95;;;-0.30;99.90;;;;;;5061314;28;20036;-85
2021/12/27 01:35:04;;;;;;;10.23;3.97;;;-0.30;99.90;;;;;;5080452;28;20055;-85
2021/12/27 01:37:30;;;;;;;4.90;3.03;;;-0.30;99.90;;;;;;5081501;27;20035;-85
2021/12/27 01:39:55;;;;;;;6.47;2.83;;;-0.30;99.90;;;;;;5069589;28;20036;-85
2021/12/27 01:42:21;;;;;;;9.90;3.97;;;-0.30;99.90;;;;;;5097790;27;20035;-85
2021/12/27 01:44:46;;;;;;;6.97;3.63;;;-0.30;99.90;;;;;;5077379;28;20382;-85
2021/12/27 01:47:12;;;;;;;11.40;5.80;;;-0.30;99.90;;;;;;5108527;27;20035;-84
2021/12/27 01:49:38;;;;;;;5.22;2.88;;;-0.30;99.90;;;;;;5108844;27;20031;-85
2021/12/27 01:52:05;;;;;;;3.35;2.10;;;-0.30;99.90;;;;;;5086800;27;20036;-85
2021/12/27 01:54:31;;;;;;;6.80;4.10;;;-0.30;99.90;;;;;;5091187;28;20036;-85
2021/12/27 01:56:56;;;;;;;6.68;3.50;;;-0.30;99.90;;;;;;5081101;27;20035;-85
2021/12/27 01:59:22;;;;;;;7.45;3.95;;;-0.30;99.90;;;;;;5095986;27;20062;-84
2021/12/27 02:01:48;;;;;;;8.57;4.90;;;-0.20;99.90;;;;;;5060988;28;20036;-84
2021/12/27 02:04:13;;;;;;;3.38;1.70;;;-0.30;99.90;;;;;;5088548;28;20043;-84
2021/12/27 02:06:39;;;;;;;4.95;3.28;;;-0.30;99.90;;;;;;5077799;28;20123;-85
2021/12/27 02:09:04;;;;;;;7.15;4.43;;;-0.30;99.90;;;;;;5084248;28;20027;-85
2021/12/27 02:11:34;;;;;;;6.70;4.20;;;-0.20;99.90;;;;;;5083638;28;20388;-85
2021/12/27 02:14:05;;;;;;;9.35;5.00;;;-0.20;99.90;;;;;;5085412;28;20039;-85
2021/12/27 02:16:34;;;;;;;10.48;6.32;;;-0.20;99.90;;;;;;5072470;28;20068;-85
2021/12/27 02:19:00;;;;;;;2.67;1.83;;;-0.20;99.90;;;;;;5082832;27;20114;-85
2021/12/27 02:21:26;;;;;;;12.85;5.38;;;-0.20;99.90;;;;;;5088089;28;20168;-84
2021/12/27 02:23:54;;;;;;;9.35;3.40;;;-0.20;99.90;;;;;;5077060;27;20548;-85
2021/12/27 02:26:20;;;;;;;8.23;3.75;;;-0.20;99.90;;;;;;5096169;28;20040;-85
2021/12/27 02:28:47;;;;;;;7.22;3.92;;;-0.20;99.90;;;;;;5085820;28;20131;-85
2021/12/27 02:31:13;;;;;;;10.68;4.95;;;-0.20;99.90;;;;;;5085582;28;20036;-85
2021/12/27 02:33:40;;;;;;;5.80;3.22;;;-0.20;99.90;;;;;;5084057;28;20039;-85
2021/12/27 02:36:07;;;;;;;7.05;4.15;;;-0.20;99.90;;;;;;5087298;27;20054;-84
2021/12/27 02:38:36;;;;;;;6.38;3.50;;;-0.20;99.90;;;;;;5086417;28;20051;-85
2021/12/27 02:41:01;;;;;;;10.93;5.93;;;-0.20;99.90;;;;;;5082000;27;20032;-85
2021/12/27 02:43:29;;;;;;;6.38;4.13;;;-0.20;99.90;;;;;;5082867;28;20393;-85
2021/12/27 02:45:58;;;;;;;9.52;4.28;;;-0.20;99.90;;;;;;5080454;28;20064;-85
2021/12/27 02:48:27;;;;;;;9.82;5.35;;;-0.30;99.90;;;;;;5068639;28;20528;-85
2021/12/27 02:50:54;;;;;;;2.80;2.13;;;-0.30;99.90;;;;;;5108978;27;20031;-85
2021/12/27 02:53:21;;;;;;;6.38;3.85;;;-0.30;99.90;;;;;;5079674;27;20496;-85
2021/12/27 02:55:53;;;;;;;3.47;1.75;;;-0.30;99.90;;;;;;5077611;28;20485;-85
2021/12/27 02:58:19;;;;;;;1.85;1.55;;;-0.30;99.90;;;;;;5067359;28;20039;-85
2021/12/27 03:00:50;;;;;;;4.97;3.42;;;-0.30;99.90;;;;;;5099714;27;20083;-85
2021/12/27 03:03:15;;;;;;;6.65;3.63;;;-0.30;99.90;;;;;;5066831;28;20038;-85
2021/12/27 03:05:43;;;;;;;7.95;4.28;;;-0.30;99.90;;;;;;5079908;28;21156;-84
2021/12/27 03:08:13;;;;;;;11.82;5.53;;;-0.30;99.90;;;;;;5067386;28;20031;-85
2021/12/27 03:10:44;;;;;;;6.15;3.08;;;-0.20;99.90;;;;;;5075346;28;20154;-85
2021/12/27 03:13:31;;;;;;;3.47;2.80;;;-0.20;99.90;;;;;;5082467;28;20509;-84
2021/12/27 03:16:09;;;;;;;0.70;0.70;;;-0.20;99.90;;;;;;5060677;27;20036;-84
2021/12/27 03:18:36;;;;;;;0.50;0.50;;;-0.20;99.90;;;;;;5083834;28;20042;-85
2021/12/27 03:21:03;;;;;;;8.50;3.88;;;-0.20;99.90;;;;;;5084696;28;20058;-85
2021/12/27 03:23:29;;;;;;;5.22;2.38;;;-0.20;99.90;;;;;;5085554;27;20441;-84
2021/12/27 03:25:54;;;;;;;9.20;4.72;;;-0.20;99.90;;;;;;5077771;28;20396;-85
2021/12/27 03:28:21;;;;;;;6.60;3.83;;;-0.20;99.90;;;;;;5078126;28;20431;-85
2021/12/27 03:30:47;;;;;;;2.95;1.95;;;-0.20;99.90;;;;;;5090823;27;20441;-84
2021/12/27 03:33:14;;;;;;;8.68;4.55;;;-0.20;99.90;;;;;;5063697;28;20404;-84
2021/12/27 03:35:48;;;;;;;6.03;3.15;;;-0.20;99.90;;;;;;5089018;28;20082;-85
2021/12/27 03:38:14;;;;;;;7.55;3.90;;;-0.10;99.90;;;;;;5061953;28;20086;-85
2021/12/27 03:40:40;;;;;;;8.15;5.32;;;-0.20;99.90;;;;;;5088378;27;20062;-84
2021/12/27 03:43:06;;;;;;;2.17;1.42;;;-0.10;99.90;;;;;;5073865;27;20051;-85
2021/12/27 03:45:35;;;;;;;5.53;2.83;;;-0.10;99.90;;;;;;5072127;27;20059;-85
2021/12/27 03:48:02;;;;;;;8.38;2.33;;;-0.10;99.90;;;;;;5083457;27;20513;-85
2021/12/27 03:50:28;;;;;;;5.55;3.13;;;-0.10;99.90;;;;;;5072499;28;20090;-85
2021/12/27 03:52:55;;;;;;;6.47;2.92;;;-0.10;99.90;;;;;;5095158;27;20566;-85
2021/12/27 03:55:22;;;;;;;7.88;4.25;;;-0.10;99.90;;;;;;5081636;28;20028;-85
2021/12/27 03:58:07;;;;;;;8.70;3.97;;;-0.10;99.90;;;;;;5057996;28;20038;-84
2021/12/27 04:01:21;;;;;;;11.88;5.40;;;-0.10;99.90;;;;;;5086818;27;20043;-85
2021/12/27 04:03:20;;;;;;;3.08;1.90;;;-0.10;99.90;;;;;;5084783;27;20062;-84
2021/12/27 04:05:46;;;;;;;7.55;3.42;;;-0.10;99.90;;;;;;5084973;28;20036;-85
2021/12/27 04:08:13;;;;;;;2.60;1.85;;;-0.10;99.90;;;;;;5075454;27;20031;-85
2021/12/27 04:10:42;;;;;;;6.13;3.03;;;-0.10;99.90;;;;;;5104572;27;20075;-85
2021/12/27 04:13:09;;;;;;;1.85;1.70;;;-0.10;99.90;;;;;;5087824;27;20039;-85
2021/12/27 04:15:36;;;;;;;6.53;4.00;;;0.00;99.90;;;;;;5079080;28;20163;-84
2021/12/27 04:18:03;;;;;;;2.63;1.90;;;0.00;99.90;;;;;;5083247;27;20409;-85
2021/12/27 04:20:29;;;;;;;6.75;3.22;;;0.00;99.90;;;;;;5098994;27;20042;-85
2021/12/27 04:22:54;;;;;;;1.95;1.38;;;0.00;99.90;;;;;;5076995;27;20035;-85
2021/12/27 04:25:21;;;;;;;11.77;5.35;;;0.00;99.90;;;;;;5082285;28;20032;-85
2021/12/27 04:27:48;;;;;;;3.65;2.25;;;0.00;99.90;;;;;;5065761;28;20511;-85
2021/12/27 04:30:15;;;;;;;6.63;2.95;;;0.00;99.90;;;;;;5073731;28;20086;-85
2021/12/27 04:32:41;;;;;;;7.90;4.50;;;0.00;99.90;;;;;;5087404;28;20044;-85
2021/12/27 04:35:08;;;;;;;4.55;3.75;;;0.00;99.90;;;;;;5107875;28;20050;-85
2021/12/27 04:37:33;;;;;;;11.60;4.95;;;0.00;99.90;;;;;;5081257;28;20492;-85
2021/12/27 04:39:59;;;;;;;2.40;1.45;;;0.00;99.90;;;;;;5092670;27;20063;-85
2021/12/27 04:42:29;;;;;;;16.08;8.48;;;0.00;99.90;;;;;;5093599;27;20027;-85
2021/12/27 04:44:55;;;;;;;8.80;5.22;;;0.10;99.90;;;;;;5068241;28;20111;-85
2021/12/27 04:47:20;;;;;;;4.72;3.17;;;0.00;99.90;;;;;;5073393;27;20469;-85
2021/12/27 04:49:46;;;;;;;11.80;6.28;;;0.00;99.90;;;;;;5090785;28;20039;-85
2021/12/27 04:52:11;;;;;;;3.47;1.92;;;0.00;99.90;;;;;;5081759;28;20405;-85
2021/12/27 04:54:38;;;;;;;16.27;5.68;;;0.10;99.90;;;;;;5087934;27;20096;-84
2021/12/27 04:57:04;;;;;;;3.50;2.15;;;0.00;99.90;;;;;;5079259;28;20510;-85
2021/12/27 04:59:30;;;;;;;7.20;3.40;;;0.50;99.90;;;;;;5072658;27;20031;-84
2021/12/27 05:01:56;;;;;;;11.27;3.75;;;0.00;99.90;;;;;;5084782;28;20527;-85
2021/12/27 05:04:21;;;;;;;2.22;1.50;;;0.00;99.90;;;;;;5087131;28;20035;-85
2021/12/27 05:06:47;;;;;;;5.80;3.70;;;0.00;99.90;;;;;;5070734;28;20036;-85
2021/12/27 05:09:12;;;;;;;4.97;2.88;;;0.10;99.90;;;;;;5072715;28;20031;-85
2021/12/27 05:11:39;;;;;;;1.73;1.50;;;0.00;99.90;;;;;;5070039;28;20040;-85
2021/12/27 05:14:05;;;;;;;5.93;3.80;;;0.10;99.90;;;;;;5072632;28;20074;-84
2021/12/27 05:16:31;;;;;;;6.40;4.68;;;0.10;99.90;;;;;;5088539;28;20070;-85
2021/12/27 05:18:56;;;;;;;5.60;4.00;;;0.10;99.90;;;;;;5064360;28;20036;-85
2021/12/27 05:21:22;;;;;;;5.85;3.97;;;0.10;99.90;;;;;;5090906;28;20031;-85
2021/12/27 05:23:47;;;;;;;9.65;4.72;;;0.10;99.90;;;;;;5074929;28;20040;-85
2021/12/27 05:26:13;;;;;;;1.30;1.05;;;0.10;99.90;;;;;;5097299;28;20050;-84
2021/12/27 05:28:39;;;;;;;5.25;2.80;;;0.10;99.90;;;;;;5076168;28;20077;-85
2021/12/27 05:31:04;;;;;;;9.45;4.70;;;0.10;99.90;;;;;;5072638;28;20032;-84
2021/12/27 05:33:30;;;;;;;8.32;3.20;;;0.10;99.90;;;;;;5088474;28;20039;-85
2021/12/27 05:35:55;;;;;;;2.05;1.85;;;0.10;99.90;;;;;;5092588;28;20043;-85
2021/12/27 05:38:22;;;;;;;9.20;2.92;;;0.10;99.90;;;;;;5069269;28;20036;-85
2021/12/27 05:40:47;;;;;;;6.32;2.85;;;0.10;99.90;;;;;;5073346;28;20043;-85
2021/12/27 05:43:13;;;;;;;1.02;0.93;;;0.10;99.90;;;;;;5075347;28;20039;-85
2021/12/27 05:45:39;;;;;;;10.80;5.15;;;0.10;99.90;;;;;;5075301;28;20036;-85
2021/12/27 05:48:06;;;;;;;7.75;4.63;;;0.10;99.90;;;;;;5076033;28;20032;-85
2021/12/27 05:50:32;;;;;;;10.32;5.13;;;0.10;99.90;;;;;;5066309;28;20088;-85
2021/12/27 05:52:57;;;;;;;3.47;2.60;;;0.20;99.90;;;;;;5087336;28;20040;-85
2021/12/27 05:55:23;;;;;;;20.48;5.63;;;0.20;99.90;;;;;;5080516;28;20063;-85
2021/12/27 05:57:49;;;;;;;6.00;3.45;;;0.20;99.90;;;;;;5086362;28;20036;-85
2021/12/27 06:00:16;;;;;;;7.05;3.78;;;0.20;99.90;;;;;;5071756;28;20035;-85
2021/12/27 06:02:43;;;;;;;5.07;3.42;;;0.20;99.90;;;;;;5070038;28;20374;-85
2021/12/27 06:05:09;;;;;;;3.60;2.58;;;0.20;99.90;;;;;;5065883;28;20040;-85
2021/12/27 06:07:36;;;;;;;7.00;1.10;;;0.20;99.90;;;;;;5062687;28;20031;-84
2021/12/27 06:10:02;;;;;;;2.88;1.92;;;0.20;99.90;;;;;;5070839;28;20064;-85
2021/12/27 06:12:28;;;;;;;4.05;2.33;;;0.20;99.90;;;;;;5078318;27;20484;-85
2021/12/27 06:14:54;;;;;;;2.35;1.80;;;0.20;99.90;;;;;;5095980;27;20036;-85
2021/12/27 06:17:19;;;;;;;1.63;1.38;;;0.20;99.90;;;;;;5078303;28;20496;-85
2021/12/27 06:19:45;;;;;;;2.72;2.10;;;0.20;99.90;;;;;;5083541;28;20036;-85
2021/12/27 06:22:11;;;;;;;1.13;1.02;;;0.20;99.90;;;;;;5074737;28;20031;-85
2021/12/27 06:24:37;;;;;;;4.60;2.20;;;0.20;99.90;;;;;;5072589;28;20115;-85
2021/12/27 06:27:03;;;;;;;2.95;1.95;;;0.20;99.90;;;;;;5077529;28;20123;-85
2021/12/27 06:29:28;;;;;;;18.60;10.32;;;0.20;99.90;;;;;;5066080;28;20048;-85
2021/12/27 06:31:54;;;;;;;4.78;3.17;;;0.20;99.90;;;;;;5070646;27;20032;-85
2021/12/27 06:34:19;;;;;;;4.38;2.92;;;0.20;99.90;;;;;;5078242;28;20075;-85
2021/12/27 06:36:45;;;;;;;3.33;1.90;;;0.30;99.90;;;;;;5071371;28;20063;-85
2021/12/27 06:39:11;;;;;;;4.32;2.45;;;0.30;99.90;;;;;;5064902;28;20040;-85
2021/12/27 06:41:37;;;;;;;5.50;3.15;;;0.30;99.90;;;;;;5069395;28;20032;-85
2021/12/27 06:44:03;;;;;;;9.02;3.80;;;0.30;99.90;;;;;;5078928;28;20039;-85
2021/12/27 06:46:29;;;;;;;9.40;4.55;;;0.30;99.90;;;;;;5073881;27;20035;-85
2021/12/27 06:48:54;;;;;;;12.20;5.15;;;0.30;99.90;;;;;;5065575;28;20115;-85
2021/12/27 06:51:20;;;;;;;2.45;1.80;;;0.30;99.90;;;;;;5077842;27;20571;-85
2021/12/27 06:53:46;;;;;;;2.83;2.10;;;0.30;99.90;;;;;;5088944;28;20125;-85
2021/12/27 06:56:12;;;;;;;12.25;6.15;;;0.30;99.90;;;;;;5073396;28;20051;-85
2021/12/27 06:58:37;;;;;;;8.80;4.53;;;0.30;99.90;;;;;;5068171;28;20043;-85
2021/12/27 07:01:04;;;;;;;5.88;2.90;;;0.30;99.90;;;;;;5086335;27;20051;-85
2021/12/27 07:03:30;;;;;;;18.08;7.63;;;0.30;99.90;;;;;;5067012;28;20066;-85
2021/12/27 07:05:56;;;;;;;11.63;5.75;;;0.30;99.90;;;;;;5075786;28;20028;-85
2021/12/27 07:08:22;;;;;;;6.60;2.80;;;0.30;99.90;;;;;;5067590;28;20101;-85
2021/12/27 07:10:49;;;;;;;4.15;2.40;;;0.30;99.90;;;;;;5066979;28;20077;-85
2021/12/27 07:13:14;;;;;;;7.25;4.45;;;0.30;99.90;;;;;;5097252;27;20035;-85
2021/12/27 07:15:44;;;;;;;7.85;3.80;;;0.30;99.90;;;;;;5093043;28;20037;-85
2021/12/27 07:18:11;;;;;;;7.35;4.70;;;0.30;99.90;;;;;;5083188;27;20078;-85
2021/12/27 07:20:37;;;;;;;3.53;2.45;;;0.30;99.90;;;;;;5067266;28;20035;-85
2021/12/27 07:23:04;;;;;;;8.23;4.80;;;0.30;99.90;;;;;;5076630;28;20451;-85
2021/12/27 07:25:30;;;;;;;4.57;2.15;;;0.40;99.90;;;;;;5060119;28;20713;-85
2021/12/27 07:27:56;;;;;;;0.50;0.50;;;0.50;99.90;;;;;;5060141;28;20106;-84
2021/12/27 07:30:22;;;;;;;7.85;3.53;;;0.30;99.90;;;;;;5060147;28;20028;-85
2021/12/27 07:32:47;;;;;;;5.45;2.92;;;0.30;99.90;;;;;;5060123;28;20050;-85
2021/12/27 07:35:14;;;;;;;4.43;2.80;;;0.30;99.90;;;;;;5076510;28;20412;-85
2021/12/27 07:37:41;;;;;;;8.85;5.25;;;0.30;99.90;;;;;;5059978;28;20489;-85
2021/12/27 07:40:07;;;;;;;4.53;2.65;;;0.30;99.90;;;;;;5059725;28;20123;-85
2021/12/27 07:42:33;;;;;;;15.63;6.00;;;0.40;99.90;;;;;;5068146;28;20040;-85
2021/12/27 07:44:59;;;;;;;3.75;1.67;;;0.40;99.90;;;;;;5071111;28;20035;-85
2021/12/27 07:47:24;;;;;;;9.95;3.05;;;0.40;99.90;;;;;;5096715;28;20047;-85
2021/12/27 07:49:50;;;;;;;0.75;0.75;;;0.40;99.90;;;;;;5073635;28;20428;-85
2021/12/27 07:52:16;;;;;;;1.20;1.08;;;0.40;99.90;;;;;;5086032;28;20035;-85
2021/12/27 07:54:41;;;;;;;10.18;4.55;;;0.40;99.90;;;;;;5096812;28;20042;-85
2021/12/27 07:57:07;;;;;;;8.55;3.90;;;0.50;99.90;;;;;;5079306;28;20071;-85
2021/12/27 07:59:33;;;;;;;2.55;1.60;;;0.50;99.90;;;;;;5076346;28;20489;-85
2021/12/27 08:01:58;;;;;;;8.07;5.25;;;0.50;99.90;;;;;;5071487;27;20090;-85
2021/12/27 08:04:24;;;;;;;10.43;5.20;;;0.50;99.90;;;;;;5069758;28;20416;-85
2021/12/27 08:06:50;;;;;;;1.85;1.10;;;0.50;99.90;;;;;;5065603;28;20076;-85
2021/12/27 08:09:16;;;;;;;2.38;1.42;;;0.50;99.90;;;;;;5079331;28;20043;-85
2021/12/27 08:11:42;;;;;;;11.43;4.60;;;0.50;99.90;;;;;;5062871;28;20499;-85
2021/12/27 08:14:07;;;;;;;3.75;2.83;;;0.50;99.90;;;;;;5059163;28;20047;-85
2021/12/27 08:16:33;;;;;;;5.80;3.67;;;0.50;99.90;;;;;;5072114;28;20416;-85
2021/12/27 08:18:59;;;;;;;2.15;1.88;;;0.50;99.90;;;;;;5096017;28;20044;-85
2021/12/27 08:21:25;;;;;;;2.17;1.92;;;0.50;99.90;;;;;;5079011;28;20036;-85
2021/12/27 08:23:52;;;;;;;3.55;2.85;;;0.50;99.90;;;;;;5096017;28;20555;-85
2021/12/27 08:26:19;;;;;;;4.05;2.38;;;0.60;99.90;;;;;;5078852;28;20045;-85
2021/12/27 08:28:49;;;;;;;0.40;0.40;;;0.60;99.90;;;;;;5092558;28;20032;-85
2021/12/27 08:31:14;;;;;;;3.13;2.85;;;0.60;99.90;;;;;;5067289;28;20039;-85
2021/12/27 08:33:40;;;;;;;1.45;0.80;;;0.60;99.90;;;;;;5064975;28;20043;-85
2021/12/27 08:36:06;;;;;;;7.18;3.50;;;0.60;99.90;;;;;;5095212;28;20040;-85
2021/12/27 08:38:32;;;;;;;4.05;2.92;;;0.60;99.90;;;;;;5078656;28;20051;-85
2021/12/27 08:40:57;;;;;;;1.33;0.70;;;0.60;99.90;;;;;;5058969;28;20036;-84
2021/12/27 08:43:23;;;;;;;2.95;1.90;;;0.60;99.90;;;;;;5058604;28;20034;-84
2021/12/27 08:45:50;;;;;;;0.90;0.90;;;0.60;99.90;;;;;;5058523;28;20047;-85
2021/12/27 08:48:15;;;;;;;1.35;1.25;;;0.60;99.90;;;;;;5061159;28;20035;-84
2021/12/27 08:50:42;;;;;;;0.98;0.88;;;0.70;99.90;;;;;;5058421;28;20408;-85
2021/12/27 08:53:08;;;;;;;2.05;1.20;;;0.70;99.90;;;;;;5078604;28;20039;-84
2021/12/27 08:55:52;;;;;;;0.50;0.50;;;0.70;99.90;;;;;;5094604;27;20134;-85
2021/12/27 08:58:17;;;;;;;6.20;2.45;;;0.70;99.90;;;;;;5058272;28;20047;-85
2021/12/27 09:00:43;;;;;;;2.55;1.90;;;0.70;99.90;;;;;;5075230;28;20044;-85
2021/12/27 09:03:13;;;;;;;5.40;4.03;;;0.70;99.90;;;;;;5061960;28;20040;-85
2021/12/27 09:05:40;;;;;;;6.88;3.42;;;0.80;99.90;;;;;;5058367;28;20032;-85
2021/12/27 09:08:05;;;;;;;0.57;0.57;;;0.80;99.90;;;;;;5058448;28;20033;-85
2021/12/27 09:10:31;;;;;;;2.63;1.52;;;0.80;99.90;;;;;;5075250;28;20032;-85
2021/12/27 09:12:56;;;;;;;6.03;2.17;;;0.90;99.90;;;;;;5058390;28;20043;-85
2021/12/27 09:15:22;;;;;;;2.97;1.95;;;0.80;99.90;;;;;;5058506;28;20043;-85
2021/12/27 09:17:48;;;;;;;0.77;0.68;;;0.90;99.90;;;;;;5071827;28;20067;-85
2021/12/27 09:20:13;;;;;;;1.75;1.50;;;0.90;99.90;;;;;;5064355;28;20047;-85
2021/12/27 09:22:40;;;;;;;5.82;2.53;;;0.90;99.90;;;;;;5078532;28;20035;-85
2021/12/27 09:25:13;;;;;;;2.13;1.58;;;0.90;99.90;;;;;;5095118;28;20062;-85
2021/12/27 09:27:39;;;;;;;1.55;1.42;;;0.90;99.90;;;;;;5075207;28;20086;-85
2021/12/27 09:30:05;;;;;;;0.80;0.80;;;1.00;99.90;;;;;;5073221;28;20062;-85
2021/12/27 09:32:36;;;;;;;7.10;2.72;;;0.90;99.90;;;;;;5088136;28;20396;-85
2021/12/27 09:35:17;;;;;;;4.05;2.78;;;1.00;99.90;;;;;;5063210;28;20032;-85
2021/12/27 09:38:11;;;;;;;14.23;2.05;;;1.00;99.90;;;;;;5057761;28;20440;-85
2021/12/27 09:40:37;;;;;;;6.25;3.00;;;1.00;99.90;;;;;;5059161;28;20505;-85
2021/12/27 09:43:03;;;;;;;15.40;3.85;;;1.10;99.90;;;;;;5077866;28;20078;-85
2021/12/27 09:45:29;;;;;;;9.05;2.75;;;1.10;99.90;;;;;;5057700;28;20119;-85
2021/12/27 09:47:55;;;;;;;0.60;0.60;;;1.10;99.90;;;;;;5075551;28;20061;-85
2021/12/27 09:50:32;;;;;;;0.47;0.47;;;1.20;99.90;;;;;;5065312;28;20028;-85
2021/12/27 09:52:58;;;;;;;3.33;2.47;;;1.20;99.90;;;;;;5063213;28;20039;-85
2021/12/27 09:55:23;;;;;;;5.63;2.50;;;1.20;99.90;;;;;;5061831;28;20614;-85
2021/12/27 09:57:49;;;;;;;4.80;3.38;;;1.20;99.90;;;;;;5061581;28;20112;-85
2021/12/27 10:00:17;;;;;;;8.57;1.40;;;1.20;99.90;;;;;;5087030;28;20047;-85
2021/12/27 10:02:43;;;;;;;1.50;1.25;;;1.30;99.90;;;;;;5078464;28;20122;-85
2021/12/27 10:05:29;;;;;;;1.13;1.00;;;1.30;99.90;;;;;;5072039;28;20043;-85
2021/12/27 10:07:55;;;;;;;3.60;2.03;;;1.30;99.90;;;;;;5078428;28;20040;-85
2021/12/27 10:10:21;;;;;;;11.57;5.78;;;1.30;99.90;;;;;;5086013;28;20032;-85
2021/12/27 10:12:47;;;;;;;1.15;0.95;;;1.40;99.90;;;;;;5067957;28;20488;-85
2021/12/27 10:15:17;;;;;;;7.78;5.10;;;1.40;99.90;;;;;;5071907;27;20073;-85
2021/12/27 10:17:43;;;;;;;6.65;3.92;;;1.40;99.90;;;;;;5069193;28;20426;-85
2021/12/27 10:20:16;;;;;;;10.45;5.00;;;1.50;99.90;;;;;;5067773;28;20177;-85
2021/12/27 10:22:45;;;;;;;5.32;2.95;;;1.50;99.90;;;;;;5069238;28;20035;-87
2021/12/27 10:25:24;;;;;;;2.20;1.95;;;1.50;99.90;;;;;;5088645;28;20489;-85
2021/12/27 10:27:53;;;;;;;2.45;2.25;;;1.60;99.90;;;;;;5063611;28;20059;-85
2021/12/27 10:30:28;;;;;;;4.40;2.83;;;1.50;99.90;;;;;;5070255;28;20091;-85
2021/12/27 10:33:23;;;;;;;6.70;3.58;;;1.60;99.90;;;;;;5067592;28;20081;-85
2021/12/27 10:35:56;;;;;;;12.85;2.72;;;1.60;99.90;;;;;;5069200;28;20059;-85
2021/12/27 10:38:25;;;;;;;9.80;5.18;;;1.60;99.90;;;;;;5084134;28;20121;-85
2021/12/27 10:41:00;;;;;;;5.07;2.45;;;1.70;99.90;;;;;;5064018;28;20492;-85
2021/12/27 10:43:35;;;;;;;3.97;2.90;;;1.80;99.90;;;;;;5075936;28;20040;-85
2021/12/27 10:46:01;;;;;;;;;;;1.80;99.90;;;;;;5062501;28;20490;-85
2021/12/27 10:48:39;;;;;;;1.58;1.48;;;1.80;99.90;;;;;;5059683;28;19968;-85
2021/12/27 10:51:05;;;;;;;0.40;0.40;;;1.90;99.90;;;;;;5080210;28;20046;-85
2021/12/27 10:53:51;;;;;;;0.75;0.75;;;1.90;99.90;;;;;;5067811;28;20036;-85
2021/12/27 10:56:28;;;;;;;2.45;2.17;;;2.00;99.90;;;;;;5077663;28;20043;-85
2021/12/27 10:59:02;;;;;;;6.82;3.80;;;2.00;99.90;;;;;;5059976;28;20079;-85
2021/12/27 11:01:28;;;;;;;0.70;0.70;;;2.00;99.90;;;;;;5061665;28;20035;-85
2021/12/27 11:03:59;;;;;;;1.63;1.02;;;2.10;99.90;;;;;;5069141;28;20385;-85
2021/12/27 11:06:28;;;;;;;5.57;2.78;;;2.20;99.90;;;;;;5077374;28;20028;-85
2021/12/27 11:08:55;;;;;;;0.50;0.50;;;2.10;99.90;;;;;;5083535;28;20513;-85
2021/12/27 11:11:28;;;;;;;1.02;0.98;;;2.10;99.90;;;;;;5060337;28;20078;-85
2021/12/27 11:14:05;;;;;;;4.57;1.92;;;2.10;99.90;;;;;;5062760;28;20043;-85
2021/12/27 11:16:31;;;;;;;0.55;0.55;;;2.40;99.90;;;;;;5063217;28;20036;-85
2021/12/27 11:18:58;;;;;;;0.40;0.40;;;2.00;99.90;;;;;;5084806;28;20032;-85
2021/12/27 11:21:47;;;;;;;3.05;2.67;;;2.10;99.90;;;;;;5066271;28;20067;-85
2021/12/27 11:24:14;;;;;;;9.73;4.60;;;2.00;99.90;;;;;;5075951;28;20036;-85
2021/12/27 11:26:41;;;;;;;11.20;5.15;;;2.00;99.90;;;;;;5091563;28;20032;-85
2021/12/27 11:29:19;;;;;;;3.85;2.10;;;2.00;99.90;;;;;;5085589;28;20088;-85
2021/12/27 11:32:10;;;;;;;3.78;1.52;;;2.00;99.90;;;;;;5076131;28;20044;-85
2021/12/27 11:34:56;;;;;;;4.18;2.60;;;2.10;99.90;;;;;;5069515;28;20028;-85
2021/12/27 11:37:35;;;;;;;4.18;3.08;;;2.10;99.90;;;;;;5070787;28;20042;-85
2021/12/27 11:40:10;;;;;;;2.17;1.98;;;2.10;99.90;;;;;;5063573;28;20044;-85
2021/12/27 11:42:57;;;;;;;0.77;0.55;;;2.10;99.90;;;;;;5086126;28;20044;-85
2021/12/27 11:45:45;;;;;;;4.38;3.35;;;2.30;99.90;;;;;;5069646;28;20115;-85
2021/12/27 11:48:22;;;;;;;3.25;2.20;;;2.20;99.90;;;;;;5067120;28;20059;-92
2021/12/27 11:50:57;;;;;;;8.23;2.30;;;2.10;99.90;;;;;;5069093;28;20024;-86
2021/12/27 11:53:29;;;;;;;6.22;3.53;;;2.20;99.90;;;;;;5066642;28;20035;-86
2021/12/27 11:55:55;;;;;;;4.32;2.90;;;2.20;99.90;;;;;;5082752;28;20949;-86
2021/12/27 11:58:35;;;;;;;4.60;2.80;;;2.20;99.90;;;;;;5077414;28;20131;-86
2021/12/27 12:01:02;;;;;;;8.23;3.42;;;2.20;99.90;;;;;;5069167;28;20067;-86
2021/12/27 12:03:41;;;;;;;3.38;2.17;;;2.30;99.90;;;;;;5069747;28;20076;-85
2021/12/27 12:06:27;;;;;;;10.32;3.38;;;2.30;99.90;;;;;;5078736;28;20031;-85
2021/12/27 12:08:54;;;;;;;6.97;3.92;;;2.30;99.90;;;;;;5063861;28;20432;-85
2021/12/27 12:11:31;;;;;;;7.07;4.35;;;2.50;99.90;;;;;;5079933;28;20039;-85
2021/12/27 12:13:57;;;;;;;4.97;2.20;;;2.40;99.90;;;;;;5058923;28;20515;-90
2021/12/27 12:16:25;;;;;;;5.20;2.75;;;2.40;99.90;;;;;;5071591;28;20051;-86
2021/12/27 12:18:51;;;;;;;12.02;4.55;;;2.40;99.90;;;;;;5065358;28;20089;-85
2021/12/27 12:21:52;;;;;;;12.23;5.20;;;2.50;99.90;;;;;;5065635;28;20036;-85
2021/12/27 12:24:22;;;;;;;8.38;3.85;;;2.50;99.90;;;;;;5013436;28;20135;-85
2021/12/27 12:26:50;;;;;;;7.60;5.03;;;2.50;99.90;;;;;;5076474;28;20035;-85
2021/12/27 12:29:16;;;;;;;5.45;2.33;;;2.60;99.90;;;;;;5087835;28;20451;-85
2021/12/27 12:31:41;;;;;;;8.18;4.53;;;2.60;99.90;;;;;;5082543;28;20035;-85
2021/12/27 12:34:21;;;;;;;4.35;1.73;;;2.60;99.90;;;;;;5061483;28;20040;-85
2021/12/27 12:36:51;;;;;;;9.90;4.88;;;2.70;99.90;;;;;;5065675;28;20179;-86
2021/12/27 12:39:19;;;;;;;5.55;2.42;;;2.80;99.90;;;;;;5081866;28;20035;-86
2021/12/27 12:41:45;;;;;;;4.47;2.45;;;3.00;99.90;;;;;;5065542;28;20039;-85
2021/12/27 12:44:11;;;;;;;0.68;0.68;;;3.00;99.90;;;;;;5064711;28;20032;-85
2021/12/27 12:46:45;;;;;;;0.65;0.65;;;3.00;99.90;;;;;;5066757;28;20128;-85
2021/12/27 12:49:20;;;;;;;3.28;1.55;;;3.00;99.90;;;;;;5072178;28;20032;-85
2021/12/27 12:51:47;;;;;;;9.43;4.32;;;3.10;99.90;;;;;;5065386;28;20074;-85
2021/12/27 12:54:16;;;;;;;1.95;1.15;;;3.00;99.90;;;;;;5065142;28;20035;-85
2021/12/27 12:56:42;;;;;;;2.75;2.17;;;3.00;99.90;;;;;;5066912;28;20508;-85
2021/12/27 12:59:20;;;;;;;0.40;0.40;;;3.00;99.90;;;;;;5082211;28;20461;-86
2021/12/27 13:05:19;;;;;;;5.32;3.15;;;3.10;99.90;;;;;;5078608;28;20431;-85
2021/12/27 13:07:46;;;;;;;5.97;3.22;;;3.00;99.90;;;;;;5067606;28;20036;-85